Global Enterprise — 3FCJ6 — position and weather

sailwx.info

Track history (hours):
 
Tides and Currents Weather Stations Pressure Air Temp Water Temp Dewpoint Dewpoint Depression Visibility Wind Speed Wind Dir Waves Ship Positions

Global Enterprise

Last reported at 2016-Jul-11 23:19 UTC. Time now 2016-Jul-27 01:53 UTC.
Position S 32°34' E 153°27'.
Warning: this ship's position is 15 days out of date.

Length 290 m; draft 15.1 m.

Type: Ship. MMSI: 356308000.

Date/timePositionNaut miles runAvg speedWind from/ knotsBaromVisibWave heightAir tempDewpointWater temp
2016-Jul-11 23:19S 32°34' E 153°27'810.8
2016-Jul-11 22:33S 32°40' E 153°20'1211.2
2016-Jul-11 21:29S 32°44' E 153°07'1111.6
2016-Jul-11 20:33S 32°47' E 152°55'1212.2
2016-Jul-11 19:33S 32°50' E 152°41'1312.9
2016-Jul-11 18:33S 32°53' E 152°26'1212.4
2016-Jul-11 17:33S 32°56' E 152°11'1212.5
2016-Jul-11 16:33S 32°59' E 151°57'7 6.5
2016-Jul-11 15:33S 32°56' E 151°50'4 4.1
2016-Jul-11 14:33S 32°54' E 151°46'1 1.2
2016-Jul-11 13:32S 32°53' E 151°45'0 0.0
2016-Jul-11 12:32S 32°53' E 151°45'0 0.0
2016-Jul-11 11:32S 32°53' E 151°45'0 0.0
2016-Jul-11 10:29S 32°53' E 151°45'0 0.0
2016-Jul-11 09:32S 32°53' E 151°45'0 0.0
2016-Jul-11 08:32S 32°53' E 151°45'0 0.0
2016-Jul-11 07:32S 32°53' E 151°45'0 0.0
2016-Jul-11 06:26S 32°53' E 151°45'0 0.0
2016-Jul-11 04:32S 32°53' E 151°45'0 0.0
2016-Jul-11 03:32S 32°53' E 151°45'0 0.0
2016-Jul-11 02:32S 32°53' E 151°45'0 0.0
2016-Jul-11 01:29S 32°53' E 151°45'0 0.0
2016-Jul-11 00:32S 32°53' E 151°45'0 0.0
2016-Jul-10 23:32S 32°53' E 151°45'0 0.0
2016-Jul-10 22:32S 32°53' E 151°45'0 0.0
2016-Jul-10 21:32S 32°53' E 151°45'0 0.0
2016-Jul-10 20:32S 32°53' E 151°45'0 0.0
2016-Jul-10 19:32S 32°53' E 151°45'0 0.0
2016-Jul-10 18:32S 32°53' E 151°45'0 0.0
2016-Jul-10 17:32S 32°53' E 151°45'0 0.0
2016-Jul-10 16:29S 32°53' E 151°45'0 0.0
2016-Jul-10 15:32S 32°53' E 151°45'0 0.0
2016-Jul-10 14:32S 32°53' E 151°45'0 0.0
2016-Jul-10 13:32S 32°53' E 151°45'0 0.0
2016-Jul-10 12:32S 32°53' E 151°45'0 0.0
2016-Jul-10 11:32S 32°53' E 151°45'0 0.0
2016-Jul-10 10:32S 32°53' E 151°45'0 0.0
2016-Jul-10 09:32S 32°53' E 151°45'0 0.4
2016-Jul-10 08:34S 32°53' E 151°45'3 2.6
2016-Jul-10 07:34S 32°55' E 151°48'7 6.9
2016-Jul-10 06:33S 33°01' E 151°53'9 8.9
2016-Jul-10 05:34S 33°09' E 151°49'3 0.2
2016-Jul-09 09:18S 33°08' E 151°52'7 9.0
2016-Jul-09 08:33S 33°02' E 151°56'9 8.8
2016-Jul-09 07:33S 32°56' E 152°04'1313.3
2016-Jul-09 06:33S 32°54' E 152°20'3313.8
2016-Jul-09 04:12S 32°45' E 152°57'  
Track history (hours):
 
Tides and Currents Weather Stations Pressure Air Temp Water Temp Dewpoint Dewpoint Depression Visibility Wind Speed Wind Dir Waves Ship Positions

Global Enterprise

Last reported at 2016-Jul-11 23:19 UTC. Time now 2016-Jul-27 01:53 UTC.
Position S 32°34' E 153°27'.
Warning: this ship's position is 15 days out of date.

Length 290 m; draft 15.1 m.

Type: Ship. MMSI: 356308000.

Date/timePositionNaut miles runAvg speedWind from/ knotsBaromVisibWave heightAir tempDewpointWater temp
2016-Jul-11 23:19S 32°34' E 153°27'810.8
2016-Jul-11 22:33S 32°40' E 153°20'1211.2
2016-Jul-11 21:29S 32°44' E 153°07'1111.6
2016-Jul-11 20:33S 32°47' E 152°55'1212.2
2016-Jul-11 19:33S 32°50' E 152°41'1312.9
2016-Jul-11 18:33S 32°53' E 152°26'1212.4
2016-Jul-11 17:33S 32°56' E 152°11'1212.5
2016-Jul-11 16:33S 32°59' E 151°57'7 6.5
2016-Jul-11 15:33S 32°56' E 151°50'4 4.1
2016-Jul-11 14:33S 32°54' E 151°46'1 1.2
2016-Jul-11 13:32S 32°53' E 151°45'0 0.0
2016-Jul-11 12:32S 32°53' E 151°45'0 0.0
2016-Jul-11 11:32S 32°53' E 151°45'0 0.0
2016-Jul-11 10:29S 32°53' E 151°45'0 0.0
2016-Jul-11 09:32S 32°53' E 151°45'0 0.0
2016-Jul-11 08:32S 32°53' E 151°45'0 0.0
2016-Jul-11 07:32S 32°53' E 151°45'0 0.0
2016-Jul-11 06:26S 32°53' E 151°45'0 0.0
2016-Jul-11 04:32S 32°53' E 151°45'0 0.0
2016-Jul-11 03:32S 32°53' E 151°45'0 0.0
2016-Jul-11 02:32S 32°53' E 151°45'0 0.0
2016-Jul-11 01:29S 32°53' E 151°45'0 0.0
2016-Jul-11 00:32S 32°53' E 151°45'0 0.0
2016-Jul-10 23:32S 32°53' E 151°45'0 0.0
2016-Jul-10 22:32S 32°53' E 151°45'0 0.0
2016-Jul-10 21:32S 32°53' E 151°45'0 0.0
2016-Jul-10 20:32S 32°53' E 151°45'0 0.0
2016-Jul-10 19:32S 32°53' E 151°45'0 0.0
2016-Jul-10 18:32S 32°53' E 151°45'0 0.0
2016-Jul-10 17:32S 32°53' E 151°45'0 0.0
2016-Jul-10 16:29S 32°53' E 151°45'0 0.0
2016-Jul-10 15:32S 32°53' E 151°45'0 0.0
2016-Jul-10 14:32S 32°53' E 151°45'0 0.0
2016-Jul-10 13:32S 32°53' E 151°45'0 0.0
2016-Jul-10 12:32S 32°53' E 151°45'0 0.0
2016-Jul-10 11:32S 32°53' E 151°45'0 0.0
2016-Jul-10 10:32S 32°53' E 151°45'0 0.0
2016-Jul-10 09:32S 32°53' E 151°45'0 0.4
2016-Jul-10 08:34S 32°53' E 151°45'3 2.6
2016-Jul-10 07:34S 32°55' E 151°48'7 6.9
2016-Jul-10 06:33S 33°01' E 151°53'9 8.9
2016-Jul-10 05:34S 33°09' E 151°49'3 0.2
2016-Jul-09 09:18S 33°08' E 151°52'7 9.0
2016-Jul-09 08:33S 33°02' E 151°56'9 8.8
2016-Jul-09 07:33S 32°56' E 152°04'1313.3
2016-Jul-09 06:33S 32°54' E 152°20'3313.8
2016-Jul-09 04:12S 32°45' E 152°57'  

Dump ship's entire track history